createdAt,value
2018-12-21T00:01:40.656Z,98.70
2018-12-21T00:04:09.749Z,98.70
2018-12-21T00:06:39.032Z,98.70
2018-12-21T00:09:08.099Z,98.50
2018-12-21T00:11:37.101Z,98.70
2018-12-21T00:14:06.119Z,98.60
2018-12-21T00:16:35.147Z,98.60
2018-12-21T00:19:04.341Z,98.70
2018-12-21T00:21:34.797Z,98.70
2018-12-21T00:24:03.934Z,98.80
2018-12-21T00:26:33.005Z,98.70
2018-12-21T00:29:02.130Z,98.70
2018-12-21T00:31:36.600Z,98.60
2018-12-21T00:34:11.025Z,98.80
2018-12-21T00:36:46.319Z,98.70
2018-12-21T00:39:20.662Z,98.60
2018-12-21T00:41:49.096Z,98.60
2018-12-21T00:44:27.616Z,98.70
2018-12-21T00:46:59.108Z,98.60
2018-12-21T00:49:28.357Z,98.80
2018-12-21T00:51:57.461Z,98.70
2018-12-21T00:54:26.569Z,98.80
2018-12-21T00:56:55.662Z,98.70
2018-12-21T00:59:24.929Z,98.80
2018-12-21T01:01:54.001Z,98.90
2018-12-21T01:04:23.033Z,98.80
2018-12-21T01:06:52.232Z,98.80
2018-12-21T01:09:23.565Z,99.10
2018-12-21T01:11:53.387Z,98.80
2018-12-21T01:14:22.646Z,98.80
2018-12-21T01:16:51.714Z,98.80
2018-12-21T01:19:20.941Z,98.80
2018-12-21T01:21:50.078Z,98.80
2018-12-21T01:24:19.244Z,98.80
2018-12-21T01:26:48.484Z,98.80
2018-12-21T01:29:17.932Z,98.90
2018-12-21T01:31:46.960Z,98.90
2018-12-21T01:34:16.197Z,98.90
2018-12-21T01:36:45.317Z,98.90
2018-12-21T01:39:14.447Z,99.00
2018-12-21T01:41:43.485Z,99.10
2018-12-21T01:44:12.522Z,99.10
2018-12-21T01:46:42.634Z,99.10
2018-12-21T01:49:11.680Z,99.20
2018-12-21T01:51:47.083Z,99.20
2018-12-21T01:54:11.734Z,99.20
2018-12-21T01:56:40.761Z,99.20
2018-12-21T01:59:09.824Z,99.20
2018-12-21T02:01:38.873Z,99.20
2018-12-21T02:04:08.728Z,99.20
2018-12-21T02:06:37.813Z,99.20
2018-12-21T02:09:07.785Z,99.20
2018-12-21T02:11:36.800Z,99.20
2018-12-21T02:14:06.258Z,99.20
2018-12-21T02:16:35.274Z,99.50
2018-12-21T02:19:04.478Z,99.20
2018-12-21T02:21:34.626Z,99.20
2018-12-21T02:24:04.999Z,99.20
2018-12-21T02:26:34.101Z,99.30
2018-12-21T02:29:03.721Z,99.30
2018-12-21T02:31:32.812Z,99.30
2018-12-21T02:34:01.931Z,99.30
2018-12-21T02:36:30.957Z,99.30
2018-12-21T02:39:00.063Z,99.40
2018-12-21T02:41:29.081Z,99.40
2018-12-21T02:43:58.127Z,99.40
2018-12-21T02:46:27.349Z,99.40
2018-12-21T02:48:56.385Z,99.40
2018-12-21T02:51:25.434Z,99.40
2018-12-21T02:53:54.455Z,99.40
2018-12-21T02:56:23.659Z,99.50
2018-12-21T02:58:52.948Z,99.50
2018-12-21T03:01:22.070Z,99.60
2018-12-21T03:03:51.250Z,99.60
2018-12-21T03:06:20.360Z,99.60
2018-12-21T03:08:49.433Z,99.70
2018-12-21T03:11:18.582Z,99.60
2018-12-21T03:13:47.783Z,99.70
2018-12-21T03:16:18.113Z,99.90
2018-12-21T03:18:49.008Z,99.90
2018-12-21T03:21:18.372Z,99.90
2018-12-21T03:23:47.433Z,99.90
2018-12-21T03:26:16.474Z,99.90
2018-12-21T03:28:45.623Z,99.90
2018-12-21T03:31:14.822Z,99.90
2018-12-21T03:33:44.061Z,99.90
2018-12-21T03:36:13.132Z,99.90
2018-12-21T03:38:42.244Z,99.90
2018-12-21T03:41:11.441Z,99.90
2018-12-21T03:43:40.559Z,99.90
2018-12-21T03:46:09.636Z,99.90
2018-12-21T03:48:38.668Z,99.90
2018-12-21T03:51:07.691Z,99.90
2018-12-21T03:53:36.795Z,99.90
2018-12-21T03:56:05.845Z,99.90
2018-12-21T03:58:34.955Z,99.90
2018-12-21T04:01:04.081Z,99.90
2018-12-21T04:03:33.164Z,99.90
2018-12-21T04:06:02.435Z,99.90
2018-12-21T04:08:31.502Z,99.90
2018-12-21T04:11:00.589Z,99.90
2018-12-21T04:13:29.629Z,99.90
2018-12-21T04:15:58.678Z,99.90
2018-12-21T04:18:27.789Z,99.90
2018-12-21T04:20:56.895Z,99.90
2018-12-21T04:23:26.016Z,99.90
2018-12-21T04:25:55.102Z,99.90
2018-12-21T04:28:24.238Z,99.90
2018-12-21T04:30:53.298Z,99.90
2018-12-21T04:33:22.337Z,99.90
2018-12-21T04:35:51.486Z,99.90
2018-12-21T04:38:20.620Z,99.90
2018-12-21T04:40:49.727Z,99.90
2018-12-21T04:43:18.890Z,99.90
2018-12-21T04:45:47.957Z,99.90
2018-12-21T04:48:17.093Z,99.90
2018-12-21T04:50:46.265Z,99.90
2018-12-21T04:53:15.462Z,99.90
2018-12-21T04:55:44.477Z,99.90
2018-12-21T04:58:13.567Z,99.90
2018-12-21T05:00:42.558Z,99.90
2018-12-21T05:03:11.845Z,99.90
2018-12-21T05:05:40.867Z,99.90
2018-12-21T05:08:09.985Z,99.90
2018-12-21T05:10:39.120Z,99.90
2018-12-21T05:13:08.123Z,99.90
2018-12-21T05:15:37.241Z,99.90
2018-12-21T05:18:06.333Z,99.90
2018-12-21T05:20:35.449Z,99.90
2018-12-21T05:23:04.662Z,99.90
2018-12-21T05:25:33.752Z,99.90
2018-12-21T05:28:02.869Z,99.90
2018-12-21T05:30:31.898Z,99.90
2018-12-21T05:33:01.241Z,99.90
2018-12-21T05:35:30.310Z,99.90
2018-12-21T05:37:59.353Z,99.90
2018-12-21T05:40:28.413Z,99.90
2018-12-21T05:42:57.533Z,99.90
2018-12-21T05:45:26.993Z,99.90
2018-12-21T05:47:56.263Z,99.90
2018-12-21T05:50:25.344Z,99.90
2018-12-21T05:53:00.708Z,99.90
2018-12-21T05:55:25.332Z,99.90
2018-12-21T05:57:54.485Z,99.90
2018-12-21T06:00:23.504Z,99.90
2018-12-21T06:05:18.800Z,99.90
2018-12-21T06:07:47.817Z,99.90
2018-12-21T06:10:16.874Z,99.90
2018-12-21T06:12:45.892Z,99.90
2018-12-21T06:15:14.964Z,99.90
2018-12-21T06:17:44.004Z,99.90
2018-12-21T06:20:13.043Z,99.90
2018-12-21T06:22:42.129Z,99.90
2018-12-21T06:25:11.157Z,99.90
2018-12-21T06:27:40.241Z,99.90
2018-12-21T06:30:09.482Z,99.90
2018-12-21T06:32:40.103Z,99.90
2018-12-21T06:35:09.292Z,99.90
2018-12-21T06:37:38.416Z,99.90
2018-12-21T06:40:07.765Z,99.90
2018-12-21T06:42:36.923Z,99.90
2018-12-21T06:45:06.397Z,99.90
2018-12-21T06:47:35.472Z,99.90
2018-12-21T06:50:04.887Z,99.90
2018-12-21T06:52:33.958Z,99.90
2018-12-21T06:55:03.035Z,99.90
2018-12-21T06:57:32.079Z,99.90
2018-12-21T07:00:01.362Z,99.90
2018-12-21T07:02:30.592Z,99.90
2018-12-21T07:04:59.608Z,99.90
2018-12-21T07:07:28.759Z,99.90
2018-12-21T07:09:57.824Z,99.90
2018-12-21T07:12:26.959Z,99.90
2018-12-21T07:14:56.000Z,99.90
2018-12-21T07:17:25.077Z,99.90
2018-12-21T07:19:54.157Z,99.90
2018-12-21T07:22:23.303Z,99.90
2018-12-21T07:24:52.449Z,99.90
2018-12-21T07:27:21.611Z,99.90
2018-12-21T07:29:50.770Z,99.90
2018-12-21T07:32:19.940Z,99.90
2018-12-21T07:34:48.985Z,99.90
2018-12-21T07:37:18.040Z,99.90
2018-12-21T07:39:47.122Z,99.90
2018-12-21T07:42:16.381Z,99.90
2018-12-21T07:44:45.409Z,99.90
2018-12-21T07:47:14.585Z,99.90
2018-12-21T07:49:44.091Z,99.90
2018-12-21T07:52:13.161Z,99.90
2018-12-21T07:54:42.213Z,99.90
2018-12-21T07:57:11.289Z,99.90
2018-12-21T07:59:40.332Z,99.90
2018-12-21T08:02:09.402Z,99.90
2018-12-21T08:04:38.425Z,99.90
2018-12-21T08:09:33.507Z,99.90
2018-12-21T08:12:02.518Z,99.90
2018-12-21T08:14:31.627Z,99.90
2018-12-21T08:17:00.700Z,99.90
2018-12-21T08:19:32.080Z,99.90
2018-12-21T08:22:00.917Z,99.90
2018-12-21T08:24:30.054Z,99.90
2018-12-21T08:26:59.758Z,99.90
2018-12-21T08:29:33.031Z,99.90
2018-12-21T08:32:02.378Z,99.90
2018-12-21T08:34:31.555Z,99.90
2018-12-21T08:37:00.784Z,99.90
2018-12-21T08:39:29.873Z,99.90
2018-12-21T08:41:58.900Z,99.90
2018-12-21T08:44:29.003Z,99.90
2018-12-21T08:46:58.065Z,99.90
2018-12-21T08:49:27.321Z,99.90
2018-12-21T08:51:56.452Z,99.90
2018-12-21T08:54:25.517Z,99.90
2018-12-21T08:56:54.812Z,99.90
2018-12-21T08:59:23.837Z,99.90
2018-12-21T09:01:52.943Z,99.90
2018-12-21T09:04:22.056Z,99.90
2018-12-21T09:06:51.185Z,99.90
2018-12-21T09:09:20.221Z,99.90
2018-12-21T09:11:49.260Z,99.90
2018-12-21T09:14:18.277Z,99.90
2018-12-21T09:16:47.433Z,99.90
2018-12-21T09:19:16.452Z,99.90
2018-12-21T09:21:45.520Z,99.90
2018-12-21T09:24:14.508Z,99.90
2018-12-21T09:26:43.606Z,99.90
2018-12-21T09:29:13.382Z,99.90
2018-12-21T09:31:42.637Z,99.90
2018-12-21T09:34:11.868Z,99.90
2018-12-21T09:36:42.938Z,99.90
2018-12-21T09:39:12.239Z,99.90
2018-12-21T09:41:41.407Z,99.90
2018-12-21T09:44:10.494Z,99.90
2018-12-21T09:46:39.604Z,99.90
2018-12-21T09:49:08.774Z,99.90
2018-12-21T09:51:39.027Z,99.90
2018-12-21T09:54:09.963Z,99.90
2018-12-21T09:56:39.213Z,99.90
2018-12-21T09:59:08.218Z,99.90
2018-12-21T10:01:37.240Z,99.90
2018-12-21T10:04:06.324Z,99.90
2018-12-21T10:06:35.610Z,99.90
2018-12-21T10:09:06.524Z,99.80
2018-12-21T10:11:35.777Z,99.60
2018-12-21T10:14:04.919Z,99.30
2018-12-21T10:16:33.938Z,99.00
2018-12-21T10:19:02.961Z,98.90
2018-12-21T10:21:32.072Z,98.70
2018-12-21T10:24:01.244Z,98.70
2018-12-21T10:26:30.418Z,98.50
2018-12-21T10:28:59.490Z,98.30
2018-12-21T10:31:28.513Z,98.00
2018-12-21T10:33:57.583Z,97.90
2018-12-21T10:36:26.780Z,97.80
2018-12-21T10:38:55.924Z,98.00
2018-12-21T10:41:25.092Z,98.10
2018-12-21T10:43:54.200Z,98.20
2018-12-21T10:46:23.261Z,98.40
2018-12-21T10:48:52.355Z,98.50
2018-12-21T10:51:21.542Z,98.70
2018-12-21T10:53:50.784Z,99.00
2018-12-21T10:56:19.923Z,98.90
2018-12-21T10:58:49.949Z,98.90
2018-12-21T11:01:19.104Z,98.80
2018-12-21T11:03:48.200Z,98.90
2018-12-21T11:06:17.390Z,98.80
2018-12-21T11:08:46.645Z,98.70
2018-12-21T11:11:15.716Z,98.60
2018-12-21T11:13:44.858Z,98.60
2018-12-21T11:16:14.071Z,98.80
2018-12-21T11:18:43.258Z,98.80
2018-12-21T11:21:12.334Z,98.80
2018-12-21T11:23:41.502Z,98.80
2018-12-21T11:26:10.668Z,98.70
2018-12-21T11:28:39.855Z,98.80
2018-12-21T11:31:08.957Z,98.90
2018-12-21T11:33:38.040Z,98.70
2018-12-21T11:36:07.202Z,98.70
2018-12-21T11:38:36.511Z,98.60
2018-12-21T11:41:05.824Z,98.60
2018-12-21T11:43:35.352Z,98.80
2018-12-21T11:46:04.627Z,98.70
2018-12-21T11:48:33.816Z,98.80
2018-12-21T11:51:02.988Z,98.90
2018-12-21T11:53:32.018Z,99.00
2018-12-21T11:56:01.123Z,98.80
2018-12-21T11:58:30.273Z,98.90
2018-12-21T12:00:59.544Z,98.80
2018-12-21T12:03:29.672Z,98.70
2018-12-21T12:05:58.824Z,98.80
2018-12-21T12:08:27.929Z,98.80
2018-12-21T12:10:57.013Z,98.80
2018-12-21T12:13:26.223Z,98.80
2018-12-21T12:15:55.237Z,98.80
2018-12-21T12:18:24.354Z,98.70
2018-12-21T12:20:53.400Z,98.90
2018-12-21T12:23:22.518Z,98.90
2018-12-21T12:25:51.545Z,98.50
2018-12-21T12:28:20.629Z,98.90
2018-12-21T12:30:49.737Z,98.90
2018-12-21T12:33:18.922Z,98.90
2018-12-21T12:35:47.947Z,98.90
2018-12-21T12:38:17.013Z,99.00
2018-12-21T12:40:46.106Z,99.00
2018-12-21T12:43:15.224Z,98.90
2018-12-21T12:45:44.353Z,99.10
2018-12-21T12:48:13.457Z,99.10
2018-12-21T12:50:42.590Z,99.10
2018-12-21T12:53:11.820Z,99.20
2018-12-21T12:55:40.846Z,99.20
2018-12-21T12:58:09.945Z,99.20
2018-12-21T13:00:39.266Z,99.30
2018-12-21T13:03:08.302Z,99.20
2018-12-21T13:05:37.520Z,99.10
2018-12-21T13:08:06.616Z,99.30
2018-12-21T13:10:35.720Z,99.30
2018-12-21T13:13:04.981Z,99.30
2018-12-21T13:15:35.015Z,99.40
2018-12-21T13:18:04.350Z,99.40
2018-12-21T13:20:33.472Z,99.50
2018-12-21T13:23:02.634Z,99.50
2018-12-21T13:25:31.909Z,99.50
2018-12-21T13:28:01.032Z,99.70
2018-12-21T13:30:30.250Z,99.50
2018-12-21T13:32:59.415Z,99.70
2018-12-21T13:35:28.480Z,99.50
2018-12-21T13:37:57.510Z,99.50
2018-12-21T13:40:26.541Z,99.40
2018-12-21T13:42:55.588Z,99.40
2018-12-21T13:45:24.626Z,99.40
2018-12-21T13:47:53.728Z,99.40
2018-12-21T13:50:22.785Z,99.30
2018-12-21T13:52:51.929Z,99.30
2018-12-21T13:55:21.125Z,99.40
2018-12-21T13:57:50.256Z,99.20
2018-12-21T14:00:19.383Z,99.20
2018-12-21T14:02:48.546Z,99.20
2018-12-21T14:05:17.657Z,99.30
2018-12-21T14:07:47.070Z,99.20
2018-12-21T14:10:16.387Z,99.30
2018-12-21T14:12:45.506Z,99.60
2018-12-21T14:15:14.623Z,99.30
2018-12-21T14:17:43.679Z,99.30
2018-12-21T14:20:13.305Z,99.40
2018-12-21T14:22:42.508Z,99.50
2018-12-21T14:25:11.582Z,99.50
2018-12-21T14:27:40.632Z,99.70
2018-12-21T14:30:10.394Z,99.70
2018-12-21T14:32:39.542Z,99.70
2018-12-21T14:35:08.761Z,99.70
2018-12-21T14:37:38.024Z,99.70
2018-12-21T14:40:07.408Z,99.70
2018-12-21T14:42:36.561Z,99.70
2018-12-21T14:45:06.339Z,99.60
2018-12-21T14:47:35.504Z,99.70
2018-12-21T14:50:05.457Z,99.70
2018-12-21T14:52:34.581Z,99.70
2018-12-21T14:55:03.938Z,99.70
2018-12-21T14:57:33.070Z,99.70
2018-12-21T15:00:02.175Z,99.70
2018-12-21T15:02:31.335Z,99.70
2018-12-21T15:05:00.401Z,99.60
2018-12-21T15:07:29.653Z,99.70
2018-12-21T15:09:58.842Z,99.70
2018-12-21T15:12:27.969Z,99.70
2018-12-21T15:14:57.065Z,99.70
2018-12-21T15:17:26.148Z,99.80
2018-12-21T15:19:55.300Z,99.80
2018-12-21T15:22:24.448Z,99.90
2018-12-21T15:24:53.514Z,99.90
2018-12-21T15:27:22.713Z,99.90
2018-12-21T15:29:51.757Z,99.90
2018-12-21T15:32:20.934Z,99.80
2018-12-21T15:34:50.109Z,99.80
2018-12-21T15:37:19.164Z,99.90
2018-12-21T15:39:48.230Z,99.80
2018-12-21T15:42:17.373Z,99.70
2018-12-21T15:44:46.576Z,99.70
2018-12-21T15:47:15.617Z,99.50
2018-12-21T15:49:44.685Z,99.60
2018-12-21T15:52:13.744Z,99.40
2018-12-21T15:54:42.922Z,99.30
2018-12-21T15:57:11.917Z,99.30
2018-12-21T15:59:40.977Z,99.20
2018-12-21T16:02:10.057Z,99.30
2018-12-21T16:04:39.178Z,99.40
2018-12-21T16:07:08.220Z,99.30
2018-12-21T16:09:37.305Z,99.30
2018-12-21T16:12:06.433Z,99.40
2018-12-21T16:14:36.691Z,99.30
2018-12-21T16:17:06.053Z,99.20
2018-12-21T16:19:35.214Z,99.20
2018-12-21T16:22:04.236Z,99.20
2018-12-21T16:24:33.414Z,99.10
2018-12-21T16:27:02.482Z,99.20
2018-12-21T16:29:31.517Z,99.10
2018-12-21T16:32:00.537Z,99.10
2018-12-21T16:34:29.676Z,99.10
2018-12-21T16:36:58.718Z,99.00
2018-12-21T16:39:27.761Z,99.00
2018-12-21T16:41:56.800Z,99.10
2018-12-21T16:44:26.015Z,99.00
2018-12-21T16:46:55.107Z,99.00
2018-12-21T16:49:24.266Z,99.00
2018-12-21T16:51:53.307Z,99.00
2018-12-21T16:54:22.381Z,98.90
2018-12-21T16:56:51.463Z,99.00
2018-12-21T16:59:20.537Z,98.90
2018-12-21T17:01:49.852Z,98.80
2018-12-21T17:04:18.920Z,98.80
2018-12-21T17:06:48.037Z,99.20
2018-12-21T17:09:17.109Z,98.80
2018-12-21T17:11:46.204Z,98.70
2018-12-21T17:14:15.248Z,98.60
2018-12-21T17:16:44.289Z,98.70
2018-12-21T17:19:17.185Z,98.60
2018-12-21T17:21:46.281Z,98.40
2018-12-21T17:24:15.309Z,98.20
2018-12-21T17:26:46.389Z,98.50
2018-12-21T17:29:15.389Z,98.20
2018-12-21T17:31:44.398Z,98.20
2018-12-21T17:34:13.441Z,98.20
2018-12-21T17:36:42.552Z,98.20
2018-12-21T17:39:11.697Z,98.00
2018-12-21T17:41:40.791Z,98.00
2018-12-21T17:44:09.881Z,98.00
2018-12-21T17:46:39.036Z,98.00
2018-12-21T17:49:08.119Z,97.80
2018-12-21T17:51:38.516Z,98.00
2018-12-21T17:54:07.737Z,98.00
2018-12-21T17:56:36.835Z,97.80
2018-12-21T17:59:05.901Z,97.70
2018-12-21T18:01:36.218Z,97.70
2018-12-21T18:04:12.838Z,97.60
2018-12-21T18:06:41.913Z,97.60
2018-12-21T18:09:12.077Z,97.50
2018-12-21T18:11:41.183Z,97.40
2018-12-21T18:14:10.208Z,97.50
2018-12-21T18:16:39.596Z,97.50
2018-12-21T18:19:08.721Z,97.60
2018-12-21T18:21:45.608Z,97.40
2018-12-21T18:24:16.514Z,97.40
2018-12-21T18:26:45.705Z,97.50
2018-12-21T18:29:14.884Z,97.50
2018-12-21T18:32:52.369Z,97.40
2018-12-21T18:35:21.553Z,97.50
2018-12-21T18:37:54.044Z,97.70
2018-12-21T18:40:23.203Z,97.90
2018-12-21T18:42:52.342Z,98.10
2018-12-21T18:45:21.573Z,98.10
2018-12-21T18:47:50.620Z,98.10
2018-12-21T18:50:19.714Z,98.30
2018-12-21T18:52:48.914Z,98.50
2018-12-21T18:55:18.165Z,98.40
2018-12-21T18:57:47.215Z,98.60
2018-12-21T19:00:17.558Z,98.60
2018-12-21T19:02:46.803Z,98.60
2018-12-21T19:05:16.857Z,98.50
2018-12-21T19:07:45.936Z,98.40
2018-12-21T19:10:15.418Z,98.50
2018-12-21T19:12:44.414Z,98.40
2018-12-21T19:15:13.615Z,98.40
2018-12-21T19:17:42.687Z,98.40
2018-12-21T19:20:12.458Z,98.40
2018-12-21T19:22:41.698Z,98.40
2018-12-21T19:25:11.642Z,98.30
2018-12-21T19:27:40.946Z,98.30
2018-12-21T19:30:11.879Z,98.40
2018-12-21T19:32:42.381Z,98.50
2018-12-21T19:35:13.885Z,98.50
2018-12-21T19:37:43.091Z,98.60
2018-12-21T19:40:12.766Z,98.60
2018-12-21T19:42:42.137Z,98.80
2018-12-21T19:45:13.560Z,99.00
2018-12-21T19:47:43.619Z,99.10
2018-12-21T19:50:12.780Z,99.10
2018-12-21T19:52:41.964Z,99.20
2018-12-21T19:55:25.950Z,99.30
2018-12-21T19:57:55.117Z,99.40
2018-12-21T20:00:24.406Z,99.60
2018-12-21T20:02:53.444Z,99.60
2018-12-21T20:05:22.514Z,99.70
2018-12-21T20:07:51.793Z,99.80
2018-12-21T20:10:20.818Z,99.90
2018-12-21T20:12:49.933Z,99.90
2018-12-21T20:15:19.011Z,99.90
2018-12-21T20:17:48.133Z,99.90
2018-12-21T20:20:17.404Z,99.90
2018-12-21T20:22:46.648Z,99.70
2018-12-21T20:25:15.863Z,99.80
2018-12-21T20:27:45.285Z,99.90
2018-12-21T20:30:17.305Z,99.80
2018-12-21T20:32:46.736Z,99.90
2018-12-21T20:35:15.879Z,99.70
2018-12-21T20:37:45.174Z,99.70
2018-12-21T20:40:15.980Z,99.80
2018-12-21T20:42:46.280Z,99.90
2018-12-21T20:45:17.321Z,99.90
2018-12-21T20:47:46.746Z,99.90
2018-12-21T20:50:16.984Z,99.90
2018-12-21T20:52:46.264Z,99.90
2018-12-21T20:55:15.943Z,99.90
2018-12-21T20:57:48.087Z,99.90
2018-12-21T21:00:17.228Z,99.90
2018-12-21T21:02:46.651Z,99.90
2018-12-21T21:05:15.709Z,99.80
2018-12-21T21:07:44.792Z,99.80
2018-12-21T21:10:14.038Z,99.80
2018-12-21T21:12:44.458Z,99.80
2018-12-21T21:15:13.916Z,99.90
2018-12-21T21:17:43.285Z,99.70
2018-12-21T21:20:14.444Z,99.70
2018-12-21T21:22:43.777Z,99.50
2018-12-21T21:25:13.007Z,99.60
2018-12-21T21:27:42.265Z,99.70
2018-12-21T21:30:14.551Z,99.70
2018-12-21T21:32:43.717Z,99.60
2018-12-21T21:35:13.118Z,99.70
2018-12-21T21:37:42.261Z,99.80
2018-12-21T21:40:15.068Z,99.70
2018-12-21T21:42:44.357Z,99.70
2018-12-21T21:45:13.380Z,99.80
2018-12-21T21:47:42.450Z,99.70
2018-12-21T21:50:11.961Z,99.80
2018-12-21T21:52:41.167Z,99.80
2018-12-21T21:55:10.376Z,99.90
2018-12-21T21:57:40.374Z,99.90
2018-12-21T22:00:12.269Z,99.90
2018-12-21T22:02:41.633Z,99.90
2018-12-21T22:05:10.841Z,99.90
2018-12-21T22:07:39.896Z,99.90
2018-12-21T22:10:10.645Z,99.90
2018-12-21T22:12:39.804Z,99.90
2018-12-21T22:15:10.285Z,99.90
2018-12-21T22:17:39.505Z,99.90
2018-12-21T22:20:10.629Z,99.90
2018-12-21T22:22:39.767Z,99.90
2018-12-21T22:25:08.865Z,99.90
2018-12-21T22:27:37.929Z,99.90
2018-12-21T22:30:09.917Z,99.90
2018-12-21T22:32:39.379Z,99.90
2018-12-21T22:35:08.694Z,99.90
2018-12-21T22:37:37.797Z,99.90
2018-12-21T22:40:07.685Z,99.90
2018-12-21T22:42:36.762Z,99.90
2018-12-21T22:45:07.457Z,99.90
2018-12-21T22:47:36.651Z,99.90
2018-12-21T22:50:07.607Z,99.90
2018-12-21T22:52:37.338Z,99.90
2018-12-21T22:55:07.897Z,99.90
2018-12-21T22:57:36.932Z,99.90
2018-12-21T23:00:12.318Z,99.90
2018-12-21T23:02:42.574Z,99.90
2018-12-21T23:05:11.848Z,99.90
2018-12-21T23:07:40.955Z,99.90
2018-12-21T23:10:10.089Z,99.90
2018-12-21T23:12:39.308Z,99.90
2018-12-21T23:15:08.442Z,99.90
2018-12-21T23:17:37.494Z,99.90
2018-12-21T23:20:07.125Z,99.90
2018-12-21T23:22:36.335Z,99.90
2018-12-21T23:25:06.461Z,99.90
2018-12-21T23:27:35.552Z,99.90
2018-12-21T23:30:05.705Z,99.90
2018-12-21T23:32:34.900Z,99.90
2018-12-21T23:35:04.723Z,99.90
2018-12-21T23:37:33.789Z,99.90
2018-12-21T23:40:02.885Z,99.90
2018-12-21T23:42:31.887Z,99.90
2018-12-21T23:45:01.024Z,99.90
2018-12-21T23:47:30.044Z,99.90
2018-12-21T23:49:59.135Z,99.90
2018-12-21T23:52:28.310Z,99.90
2018-12-21T23:54:57.390Z,99.90
2018-12-21T23:57:26.424Z,99.90
2018-12-21T23:59:55.585Z,99.90
